createdAt,value
2022-12-01T00:00:00.532Z,0.090
2022-12-01T00:01:00.254Z,0.090
2022-12-01T00:02:00.649Z,0.090
2022-12-01T00:03:00.327Z,0.090
2022-12-01T00:04:00.258Z,0.090
2022-12-01T00:05:00.294Z,0.090
2022-12-01T00:06:00.520Z,0.090
2022-12-01T00:07:00.271Z,0.090
2022-12-01T00:08:00.374Z,0.090
2022-12-01T00:09:00.272Z,0.090
2022-12-01T00:10:00.245Z,0.090
2022-12-01T00:11:00.273Z,0.090
2022-12-01T00:12:00.391Z,0.090
2022-12-01T00:13:00.324Z,0.090
2022-12-01T00:14:00.249Z,0.090
2022-12-01T00:15:00.282Z,0.090
2022-12-01T00:16:00.334Z,0.090
2022-12-01T00:17:00.450Z,0.090
2022-12-01T00:18:00.439Z,0.090
2022-12-01T00:19:00.354Z,0.090
2022-12-01T00:20:00.308Z,0.090
2022-12-01T00:21:00.311Z,0.090
2022-12-01T00:22:00.334Z,0.090
2022-12-01T00:23:00.276Z,0.090
2022-12-01T00:24:00.560Z,0.090
2022-12-01T00:25:00.387Z,0.090
2022-12-01T00:26:00.252Z,0.090
2022-12-01T00:27:00.247Z,0.090
2022-12-01T00:28:00.288Z,0.090
2022-12-01T00:29:00.255Z,0.090
2022-12-01T00:30:00.412Z,0.180
2022-12-01T00:31:00.477Z,0.090
2022-12-01T00:32:00.357Z,0.090
2022-12-01T00:33:00.446Z,0.090
2022-12-01T00:34:00.278Z,0.090
2022-12-01T00:35:00.250Z,0.090
2022-12-01T00:36:00.551Z,0.090
2022-12-01T00:37:00.246Z,0.090
2022-12-01T00:38:00.308Z,0.090
2022-12-01T00:39:00.252Z,0.090
2022-12-01T00:40:00.300Z,0.090
2022-12-01T00:41:00.271Z,0.090
2022-12-01T00:42:00.444Z,0.090
2022-12-01T00:43:00.309Z,0.090
2022-12-01T00:44:00.278Z,0.090
2022-12-01T00:45:00.260Z,0.090
2022-12-01T00:46:00.385Z,0.090
2022-12-01T00:47:00.303Z,0.090
2022-12-01T00:48:00.654Z,0.090
2022-12-01T00:49:00.397Z,0.090
2022-12-01T00:50:00.603Z,0.090
2022-12-01T00:51:00.718Z,0.090
2022-12-01T00:52:00.626Z,0.090
2022-12-01T00:53:00.481Z,0.090
2022-12-01T00:54:00.933Z,0.090
2022-12-01T00:55:00.382Z,0.090
2022-12-01T00:56:00.712Z,0.090
2022-12-01T00:57:00.687Z,0.090
2022-12-01T00:58:00.626Z,0.090
2022-12-01T00:59:00.657Z,0.090
2022-12-01T01:00:00.505Z,0.090
2022-12-01T01:01:00.583Z,0.090
2022-12-01T01:02:00.356Z,0.090
2022-12-01T01:03:00.618Z,0.090
2022-12-01T01:04:00.291Z,0.090
2022-12-01T01:05:00.662Z,0.090
2022-12-01T01:06:00.586Z,0.090
2022-12-01T01:07:00.786Z,0.090
2022-12-01T01:08:00.385Z,0.090
2022-12-01T01:09:00.282Z,0.090
2022-12-01T01:10:00.311Z,0.090
2022-12-01T01:11:00.248Z,0.090
2022-12-01T01:12:00.438Z,0.090
2022-12-01T01:13:00.276Z,0.090
2022-12-01T01:14:00.278Z,0.090
2022-12-01T01:15:00.249Z,0.090
2022-12-01T01:16:00.274Z,0.090
2022-12-01T01:17:00.339Z,0.090
2022-12-01T01:18:00.490Z,0.045
2022-12-01T01:19:00.275Z,0.045
2022-12-01T01:20:00.279Z,0.045
2022-12-01T01:21:00.276Z,0.045
2022-12-01T01:22:00.272Z,0.045
2022-12-01T01:23:00.301Z,0.045
2022-12-01T01:24:00.560Z,0.045
2022-12-01T01:25:00.310Z,0.045
2022-12-01T01:26:00.326Z,0.045
2022-12-01T01:27:00.371Z,0.045
2022-12-01T01:28:00.332Z,0.045
2022-12-01T01:29:00.348Z,0.045
2022-12-01T01:30:00.428Z,0.045
2022-12-01T01:31:00.350Z,0.045
2022-12-01T01:32:00.324Z,0.045
2022-12-01T01:33:00.464Z,0.045
2022-12-01T01:34:00.503Z,0.045
2022-12-01T01:35:00.326Z,0.045
2022-12-01T01:36:00.396Z,0.045
2022-12-01T01:37:00.265Z,0.045
2022-12-01T01:38:00.269Z,0.045
2022-12-01T01:39:00.269Z,0.045
2022-12-01T01:40:00.276Z,0.045
2022-12-01T01:41:00.246Z,0.045
2022-12-01T01:42:00.438Z,0.045
2022-12-01T01:43:00.306Z,0.045
2022-12-01T01:44:00.282Z,0.045
2022-12-01T01:45:00.304Z,0.045
2022-12-01T01:46:00.310Z,0.045
2022-12-01T01:47:00.303Z,0.045
2022-12-01T01:48:00.495Z,0.045
2022-12-01T01:49:00.454Z,0.045
2022-12-01T01:50:00.305Z,0.045
2022-12-01T01:51:00.275Z,0.045
2022-12-01T01:52:00.281Z,0.045
2022-12-01T01:53:00.306Z,0.045
2022-12-01T01:54:00.459Z,0.045
2022-12-01T01:55:00.308Z,0.045
2022-12-01T01:56:00.295Z,0.045
2022-12-01T01:57:00.374Z,0.045
2022-12-01T01:58:00.335Z,0.045
2022-12-01T01:59:00.264Z,0.045
2022-12-01T02:00:00.465Z,0.045
2022-12-01T02:01:00.319Z,0.045
2022-12-01T02:02:00.408Z,0.045
2022-12-01T02:03:00.411Z,0.045
2022-12-01T02:04:00.433Z,0.045
2022-12-01T02:05:00.244Z,0.045
2022-12-01T02:06:04.799Z,0.045
2022-12-01T02:07:00.295Z,0.045
2022-12-01T02:08:00.377Z,0.045
2022-12-01T02:09:00.269Z,0.045
2022-12-01T02:10:00.300Z,0.045
2022-12-01T02:11:00.265Z,0.045
2022-12-01T02:12:00.466Z,0.045
2022-12-01T02:13:00.299Z,0.045
2022-12-01T02:14:00.244Z,0.045
2022-12-01T02:15:00.265Z,0.045
2022-12-01T02:16:00.272Z,0.045
2022-12-01T02:17:00.337Z,0.045
2022-12-01T02:18:00.636Z,0.045
2022-12-01T02:19:00.496Z,0.045
2022-12-01T02:20:00.238Z,0.045
2022-12-01T02:21:00.266Z,0.045
2022-12-01T02:22:00.276Z,0.045
2022-12-01T02:23:00.235Z,0.045
2022-12-01T02:24:00.498Z,0.045
2022-12-01T02:25:00.271Z,0.045
2022-12-01T02:26:00.308Z,0.045
2022-12-01T02:27:00.267Z,0.045
2022-12-01T02:28:00.268Z,0.045
2022-12-01T02:29:00.350Z,0.045
2022-12-01T02:30:00.679Z,0.045
2022-12-01T02:31:00.481Z,0.045
2022-12-01T02:32:00.259Z,0.045
2022-12-01T02:33:00.338Z,0.045
2022-12-01T02:34:00.321Z,0.045
2022-12-01T02:35:00.460Z,0.045
2022-12-01T02:36:00.350Z,0.045
2022-12-01T02:37:00.316Z,0.045
2022-12-01T02:38:00.430Z,0.045
2022-12-01T02:39:00.358Z,0.045
2022-12-01T02:40:00.269Z,0.045
2022-12-01T02:41:00.261Z,0.045
2022-12-01T02:42:00.495Z,0.045
2022-12-01T02:43:00.274Z,0.045
2022-12-01T02:44:00.237Z,0.045
2022-12-01T02:45:00.238Z,0.045
2022-12-01T02:46:00.372Z,0.045
2022-12-01T02:47:00.303Z,0.045
2022-12-01T02:48:00.446Z,0.045
2022-12-01T02:49:00.303Z,0.045
2022-12-01T02:50:00.298Z,0.045
2022-12-01T02:51:00.392Z,0.045
2022-12-01T02:52:00.281Z,0.045
2022-12-01T02:53:00.281Z,0.045
2022-12-01T02:54:00.395Z,0.045
2022-12-01T02:55:00.258Z,0.045
2022-12-01T02:56:00.272Z,0.045
2022-12-01T02:57:00.291Z,0.045
2022-12-01T02:58:00.314Z,0.045
2022-12-01T02:59:00.348Z,0.045
2022-12-01T03:00:00.426Z,0.045
2022-12-01T03:01:00.325Z,0.045
2022-12-01T03:02:00.274Z,0.045
2022-12-01T03:03:00.456Z,0.045
2022-12-01T03:04:00.349Z,0.045
2022-12-01T03:05:00.279Z,0.045
2022-12-01T03:06:00.415Z,0.045
2022-12-01T03:07:00.274Z,0.045
2022-12-01T03:08:00.317Z,0.045
2022-12-01T03:09:00.281Z,0.045
2022-12-01T03:10:00.275Z,0.045
2022-12-01T03:11:00.272Z,0.045
2022-12-01T03:12:00.421Z,0.045
2022-12-01T03:13:00.307Z,0.045
2022-12-01T03:14:00.278Z,0.045
2022-12-01T03:15:00.272Z,0.045
2022-12-01T03:16:00.391Z,0.045
2022-12-01T03:17:00.280Z,0.045
2022-12-01T03:18:00.422Z,0.045
2022-12-01T03:19:00.277Z,0.045
2022-12-01T03:20:00.304Z,0.090
2022-12-01T03:21:00.373Z,0.045
2022-12-01T03:22:00.272Z,0.045
2022-12-01T03:23:00.293Z,0.045
2022-12-01T03:24:00.408Z,0.045
2022-12-01T03:25:00.342Z,0.045
2022-12-01T03:26:00.288Z,0.045
2022-12-01T03:27:00.326Z,0.045
2022-12-01T03:28:20.737Z,0.090
2022-12-01T03:29:00.323Z,0.090
2022-12-01T03:30:00.502Z,0.090
2022-12-01T03:31:00.361Z,0.135
2022-12-01T03:32:00.355Z,0.135
2022-12-01T03:33:00.253Z,0.135
2022-12-01T03:34:00.252Z,0.135
2022-12-01T03:35:00.379Z,0.135
2022-12-01T03:36:00.595Z,0.135
2022-12-01T03:37:00.278Z,0.135
2022-12-01T03:38:00.307Z,0.180
2022-12-01T03:39:00.248Z,0.180
2022-12-01T03:40:01.121Z,0.180
2022-12-01T03:41:00.246Z,0.225
2022-12-01T03:42:00.506Z,0.225
2022-12-01T03:43:00.266Z,0.270
2022-12-01T03:44:00.254Z,0.315
2022-12-01T03:45:00.275Z,0.405
2022-12-01T03:46:00.344Z,0.450
2022-12-01T03:47:00.276Z,0.540
2022-12-01T03:48:00.477Z,0.630
2022-12-01T03:49:00.281Z,0.810
2022-12-01T03:50:00.258Z,0.990
2022-12-01T03:51:00.539Z,1.215
2022-12-01T03:52:00.278Z,1.440
2022-12-01T03:53:00.279Z,1.755
2022-12-01T03:54:00.462Z,2.115
2022-12-01T03:55:00.253Z,2.475
2022-12-01T03:56:00.316Z,2.925
2022-12-01T03:57:00.309Z,3.420
2022-12-01T03:58:00.284Z,3.825
2022-12-01T03:59:00.327Z,4.320
2022-12-01T04:00:00.461Z,4.905
2022-12-01T04:01:00.374Z,5.355
2022-12-01T04:02:00.299Z,6.030
2022-12-01T04:03:00.334Z,6.750
2022-12-01T04:04:00.280Z,7.470
2022-12-01T04:05:00.272Z,8.280
2022-12-01T04:06:00.452Z,9.315
2022-12-01T04:07:00.293Z,10.305
2022-12-01T04:08:00.419Z,11.205
2022-12-01T04:09:00.244Z,12.060
2022-12-01T04:10:00.278Z,13.140
2022-12-01T04:11:00.265Z,14.580
2022-12-01T04:12:00.495Z,16.200
2022-12-01T04:13:00.308Z,17.910
2022-12-01T04:14:00.278Z,19.710
2022-12-01T04:15:00.253Z,21.690
2022-12-01T04:16:00.348Z,23.760
2022-12-01T04:17:00.278Z,25.020
2022-12-01T04:18:00.451Z,25.380
2022-12-01T04:19:00.283Z,25.380
2022-12-01T04:20:00.279Z,26.280
2022-12-01T04:21:00.398Z,27.720
2022-12-01T04:22:00.396Z,29.700
2022-12-01T04:23:00.281Z,31.500
2022-12-01T04:24:00.457Z,33.660
2022-12-01T04:25:00.310Z,36.000
2022-12-01T04:26:00.279Z,38.160
2022-12-01T04:27:00.279Z,40.320
2022-12-01T04:28:00.270Z,41.940
2022-12-01T04:29:00.295Z,43.200
2022-12-01T04:30:00.548Z,44.460
2022-12-01T04:31:00.353Z,45.900
2022-12-01T04:32:00.247Z,46.440
2022-12-01T04:33:00.249Z,45.720
2022-12-01T04:34:00.278Z,44.640
2022-12-01T04:35:00.418Z,43.920
2022-12-01T04:36:00.426Z,44.820
2022-12-01T04:37:00.444Z,45.540
2022-12-01T04:38:00.390Z,45.720
2022-12-01T04:39:00.348Z,46.080
2022-12-01T04:40:00.331Z,45.900
2022-12-01T04:41:00.310Z,45.720
2022-12-01T04:42:00.496Z,46.800
2022-12-01T04:43:00.270Z,48.960
2022-12-01T04:44:00.378Z,51.120
2022-12-01T04:45:00.317Z,53.280
2022-12-01T04:46:00.275Z,55.800
2022-12-01T04:47:00.371Z,58.320
2022-12-01T04:48:00.431Z,61.200
2022-12-01T04:49:00.299Z,64.800
2022-12-01T04:50:00.252Z,69.120
2022-12-01T04:51:00.277Z,72.360
2022-12-01T04:52:00.305Z,76.320
2022-12-01T04:53:00.283Z,79.200
2022-12-01T04:54:00.475Z,81.720
2022-12-01T04:55:00.277Z,84.960
2022-12-01T04:56:00.282Z,86.400
2022-12-01T04:57:00.305Z,86.040
2022-12-01T04:58:00.305Z,86.760
2022-12-01T04:59:00.280Z,88.560
2022-12-01T05:00:00.575Z,87.840
2022-12-01T05:01:00.378Z,87.840
2022-12-01T05:02:00.392Z,87.840
2022-12-01T05:03:00.304Z,87.840
2022-12-01T05:04:00.251Z,88.200
2022-12-01T05:05:00.279Z,87.840
2022-12-01T05:06:00.470Z,86.040
2022-12-01T05:07:00.318Z,84.960
2022-12-01T05:08:00.348Z,82.800
2022-12-01T05:09:00.391Z,79.920
2022-12-01T05:10:00.332Z,77.760
2022-12-01T05:11:00.343Z,76.680
2022-12-01T05:12:00.388Z,74.880
2022-12-01T05:13:00.383Z,74.520
2022-12-01T05:14:00.298Z,73.800
2022-12-01T05:15:00.284Z,74.160
2022-12-01T05:16:00.390Z,75.600
2022-12-01T05:17:00.383Z,77.400
2022-12-01T05:18:00.453Z,79.560
2022-12-01T05:19:00.301Z,83.520
2022-12-01T05:20:00.247Z,87.840
2022-12-01T05:21:00.273Z,92.880
2022-12-01T05:22:00.286Z,96.480
2022-12-01T05:23:06.034Z,100.080
2022-12-01T05:24:00.567Z,105.120
2022-12-01T05:25:00.250Z,105.120
2022-12-01T05:26:00.307Z,104.400
2022-12-01T05:27:00.278Z,103.680
2022-12-01T05:28:00.307Z,100.080
2022-12-01T05:29:00.302Z,100.800
2022-12-01T05:30:00.459Z,100.080
2022-12-01T05:31:00.286Z,100.800
2022-12-01T05:32:00.475Z,102.960
2022-12-01T05:33:00.310Z,109.440
2022-12-01T05:34:00.281Z,117.360
2022-12-01T05:35:00.258Z,124.560
2022-12-01T05:36:00.417Z,133.920
2022-12-01T05:37:00.252Z,145.440
2022-12-01T05:38:04.577Z,159.840
2022-12-01T05:39:00.432Z,172.800
2022-12-01T05:40:00.277Z,191.520
2022-12-01T05:41:00.314Z,210.240
2022-12-01T05:42:00.459Z,231.840
2022-12-01T05:43:00.293Z,264.960
2022-12-01T05:44:00.351Z,290.880
2022-12-01T05:45:00.302Z,315.360
2022-12-01T05:46:00.383Z,345.600
2022-12-01T05:47:00.272Z,374.400
2022-12-01T05:48:00.596Z,397.440
2022-12-01T05:49:00.298Z,411.840
2022-12-01T05:50:05.134Z,426.240
2022-12-01T05:51:00.321Z,440.640
2022-12-01T05:52:00.355Z,457.920
2022-12-01T05:53:00.244Z,478.080
2022-12-01T05:54:00.514Z,498.240
2022-12-01T05:55:00.302Z,521.280
2022-12-01T05:56:00.244Z,527.040
2022-12-01T05:57:00.302Z,506.880
2022-12-01T05:58:00.252Z,478.080
2022-12-01T05:59:00.300Z,452.160
2022-12-01T06:00:00.468Z,440.640
2022-12-01T06:01:00.342Z,420.480
2022-12-01T06:02:00.296Z,391.680
2022-12-01T06:03:00.279Z,374.400
2022-12-01T06:04:00.339Z,360.000
2022-12-01T06:05:00.249Z,354.240
2022-12-01T06:06:00.531Z,357.120
2022-12-01T06:07:00.271Z,368.640
2022-12-01T06:08:00.476Z,383.040
2022-12-01T06:09:00.439Z,388.800
2022-12-01T06:10:00.274Z,388.800
2022-12-01T06:11:00.307Z,385.920
2022-12-01T06:12:00.367Z,397.440
2022-12-01T06:13:00.316Z,403.200
2022-12-01T06:14:00.339Z,414.720
2022-12-01T06:15:00.348Z,423.360
2022-12-01T06:16:00.300Z,406.080
2022-12-01T06:17:00.362Z,394.560
2022-12-01T06:18:00.537Z,374.400
2022-12-01T06:19:00.301Z,355.680
2022-12-01T06:20:00.251Z,355.680
2022-12-01T06:21:00.315Z,364.320
2022-12-01T06:22:00.334Z,391.680
2022-12-01T06:23:00.299Z,403.200
2022-12-01T06:24:00.524Z,408.960
2022-12-01T06:25:00.274Z,414.720
2022-12-01T06:26:00.272Z,414.720
2022-12-01T06:27:00.271Z,417.600
2022-12-01T06:28:00.254Z,434.880
2022-12-01T06:29:00.482Z,449.280
2022-12-01T06:30:00.388Z,452.160
2022-12-01T06:31:03.584Z,457.920
2022-12-01T06:32:00.342Z,460.800
2022-12-01T06:33:00.247Z,469.440
2022-12-01T06:34:00.244Z,472.320
2022-12-01T06:35:00.256Z,498.240
2022-12-01T06:36:00.540Z,515.520
2022-12-01T06:37:00.289Z,547.200
2022-12-01T06:38:00.274Z,561.600
2022-12-01T06:39:00.408Z,555.840
2022-12-01T06:40:00.305Z,524.160
2022-12-01T06:41:00.366Z,498.240
2022-12-01T06:42:00.424Z,478.080
2022-12-01T06:43:00.306Z,478.080
2022-12-01T06:44:00.410Z,492.480
2022-12-01T06:45:00.290Z,515.520
2022-12-01T06:46:02.273Z,552.960
2022-12-01T06:47:00.281Z,590.400
2022-12-01T06:48:00.440Z,624.960
2022-12-01T06:49:00.270Z,659.520
2022-12-01T06:50:00.284Z,696.960
2022-12-01T06:51:00.323Z,731.520
2022-12-01T06:52:01.174Z,760.320
2022-12-01T06:53:00.291Z,777.600
2022-12-01T06:54:05.259Z,789.120
2022-12-01T06:55:00.368Z,800.640
2022-12-01T06:56:00.327Z,806.400
2022-12-01T06:57:00.308Z,812.160
2022-12-01T06:58:00.318Z,823.680
2022-12-01T06:59:00.324Z,840.960
2022-12-01T07:00:00.494Z,840.960
2022-12-01T07:01:00.379Z,817.920
2022-12-01T07:02:00.274Z,789.120
2022-12-01T07:03:00.391Z,766.080
2022-12-01T07:04:00.251Z,766.080
2022-12-01T07:05:00.285Z,789.120
2022-12-01T07:06:00.584Z,823.680
2022-12-01T07:07:00.276Z,864.000
2022-12-01T07:08:00.365Z,892.800
2022-12-01T07:09:00.251Z,892.800
2022-12-01T07:10:00.416Z,858.240
2022-12-01T07:11:00.277Z,800.640
2022-12-01T07:12:00.381Z,760.320
2022-12-01T07:13:00.247Z,717.120
2022-12-01T07:14:00.249Z,659.520
2022-12-01T07:15:00.306Z,599.040
2022-12-01T07:16:00.285Z,547.200
2022-12-01T07:17:00.410Z,489.600
2022-12-01T07:18:00.814Z,429.120
2022-12-01T07:19:00.723Z,385.920
2022-12-01T07:20:00.330Z,352.800
2022-12-01T07:21:00.371Z,324.000
2022-12-01T07:22:00.376Z,303.840
2022-12-01T07:23:00.342Z,292.320
2022-12-01T07:24:00.717Z,283.680
2022-12-01T07:25:00.507Z,276.480
2022-12-01T07:26:00.251Z,270.720
2022-12-01T07:27:00.307Z,266.400
2022-12-01T07:28:00.276Z,264.960
2022-12-01T07:29:00.312Z,264.960
2022-12-01T07:30:00.434Z,264.960
2022-12-01T07:31:00.353Z,266.400
2022-12-01T07:32:00.308Z,269.280
2022-12-01T07:33:00.305Z,273.600
2022-12-01T07:34:00.307Z,279.360
2022-12-01T07:35:00.278Z,283.680
2022-12-01T07:36:00.407Z,289.440
2022-12-01T07:37:00.252Z,292.320
2022-12-01T07:38:00.250Z,299.520
2022-12-01T07:39:00.284Z,303.840
2022-12-01T07:40:00.480Z,309.600
2022-12-01T07:41:00.278Z,316.800
2022-12-01T07:42:00.430Z,326.880
2022-12-01T07:43:00.280Z,335.520
2022-12-01T07:44:00.298Z,338.400
2022-12-01T07:45:00.274Z,341.280
2022-12-01T07:46:00.323Z,348.480
2022-12-01T07:47:00.346Z,360.000
2022-12-01T07:48:00.561Z,374.400
2022-12-01T07:49:00.276Z,394.560
2022-12-01T07:50:00.333Z,414.720
2022-12-01T07:51:00.336Z,437.760
2022-12-01T07:52:00.307Z,460.800
2022-12-01T07:53:00.316Z,486.720
2022-12-01T07:54:00.500Z,504.000
2022-12-01T07:55:00.361Z,518.400
2022-12-01T07:56:03.128Z,521.280
2022-12-01T07:57:00.275Z,518.400
2022-12-01T07:58:00.278Z,506.880
2022-12-01T07:59:00.316Z,489.600
2022-12-01T08:00:00.463Z,480.960
2022-12-01T08:01:00.298Z,469.440
2022-12-01T08:02:00.419Z,463.680
2022-12-01T08:03:00.359Z,463.680
2022-12-01T08:04:00.244Z,463.680
2022-12-01T08:05:00.294Z,457.920
2022-12-01T08:06:00.408Z,455.040
2022-12-01T08:07:00.282Z,466.560
2022-12-01T08:08:00.364Z,480.960
2022-12-01T08:09:00.321Z,480.960
2022-12-01T08:10:00.421Z,460.800
2022-12-01T08:11:00.260Z,434.880
2022-12-01T08:12:00.399Z,420.480
2022-12-01T08:13:00.339Z,426.240
2022-12-01T08:14:00.340Z,446.400
2022-12-01T08:15:00.285Z,489.600
2022-12-01T08:16:00.459Z,506.880
2022-12-01T08:17:00.421Z,524.160
2022-12-01T08:18:01.152Z,515.520
2022-12-01T08:19:00.313Z,518.400
2022-12-01T08:20:00.410Z,538.560
2022-12-01T08:21:00.279Z,538.560
2022-12-01T08:22:00.280Z,555.840
2022-12-01T08:23:00.255Z,573.120
2022-12-01T08:24:00.455Z,584.640
2022-12-01T08:25:00.411Z,550.080
2022-12-01T08:26:00.256Z,492.480
2022-12-01T08:27:00.352Z,466.560
2022-12-01T08:28:00.279Z,449.280
2022-12-01T08:29:00.247Z,452.160
2022-12-01T08:30:00.541Z,446.400
2022-12-01T08:31:00.409Z,432.000
2022-12-01T08:32:00.272Z,480.960
2022-12-01T08:33:00.308Z,506.880
2022-12-01T08:34:00.306Z,567.360
2022-12-01T08:35:00.306Z,593.280
2022-12-01T08:36:00.482Z,541.440
2022-12-01T08:37:00.290Z,576.000
2022-12-01T08:38:00.290Z,581.760
2022-12-01T08:39:00.416Z,581.760
2022-12-01T08:40:00.403Z,619.200
2022-12-01T08:41:00.321Z,633.600
2022-12-01T08:42:00.349Z,599.040
2022-12-01T08:43:00.298Z,578.880
2022-12-01T08:44:01.241Z,552.960
2022-12-01T08:45:00.383Z,532.800
2022-12-01T08:46:00.306Z,509.760
2022-12-01T08:47:00.333Z,492.480
2022-12-01T08:48:00.484Z,506.880
2022-12-01T08:49:00.304Z,544.320
2022-12-01T08:50:00.251Z,555.840
2022-12-01T08:51:00.305Z,518.400
2022-12-01T08:52:00.258Z,532.800
2022-12-01T08:53:00.277Z,544.320
2022-12-01T08:54:00.592Z,538.560
2022-12-01T08:55:00.377Z,532.800
2022-12-01T08:56:00.320Z,509.760
2022-12-01T08:57:00.275Z,480.960
2022-12-01T08:58:00.319Z,480.960
2022-12-01T08:59:00.252Z,512.640
2022-12-01T09:00:00.466Z,544.320
2022-12-01T09:01:00.305Z,578.880
2022-12-01T09:02:05.386Z,578.880
2022-12-01T09:03:00.342Z,593.280
2022-12-01T09:04:00.276Z,596.160
2022-12-01T09:05:00.298Z,593.280
2022-12-01T09:06:00.578Z,576.000
2022-12-01T09:07:00.278Z,573.120
2022-12-01T09:08:00.447Z,599.040
2022-12-01T09:09:00.292Z,624.960
2022-12-01T09:10:00.542Z,636.480
2022-12-01T09:11:00.318Z,653.760
2022-12-01T09:12:00.375Z,659.520
2022-12-01T09:13:00.342Z,659.520
2022-12-01T09:14:00.425Z,650.880
2022-12-01T09:15:00.430Z,633.600
2022-12-01T09:16:00.437Z,607.680
2022-12-01T09:17:00.416Z,599.040
2022-12-01T09:18:00.643Z,599.040
2022-12-01T09:19:00.305Z,607.680
2022-12-01T09:20:00.402Z,619.200
2022-12-01T09:21:00.278Z,656.640
2022-12-01T09:22:00.393Z,696.960
2022-12-01T09:23:00.390Z,734.400
2022-12-01T09:24:00.480Z,760.320
2022-12-01T09:25:00.404Z,760.320
2022-12-01T09:26:00.285Z,754.560
2022-12-01T09:27:00.283Z,743.040
2022-12-01T09:28:00.307Z,748.800
2022-12-01T09:29:00.290Z,748.800
2022-12-01T09:30:01.212Z,743.040
2022-12-01T09:31:00.383Z,734.400
2022-12-01T09:32:00.434Z,728.640
2022-12-01T09:33:00.341Z,728.640
2022-12-01T09:34:00.267Z,743.040
2022-12-01T09:35:00.540Z,734.400
2022-12-01T09:36:00.488Z,714.240
2022-12-01T09:37:00.320Z,694.080
2022-12-01T09:38:00.407Z,656.640
2022-12-01T09:39:00.517Z,581.760
2022-12-01T09:40:01.367Z,550.080
2022-12-01T09:41:00.431Z,532.800
2022-12-01T09:42:06.129Z,532.800
2022-12-01T09:43:00.376Z,547.200
2022-12-01T09:44:00.459Z,547.200
2022-12-01T09:45:00.328Z,547.200
2022-12-01T09:46:00.348Z,547.200
2022-12-01T09:47:00.502Z,555.840
2022-12-01T09:48:00.525Z,567.360
2022-12-01T09:49:00.351Z,576.000
2022-12-01T09:50:00.338Z,584.640
2022-12-01T09:51:00.423Z,593.280
2022-12-01T09:52:00.406Z,590.400
2022-12-01T09:53:00.377Z,584.640
2022-12-01T09:54:00.635Z,587.520
2022-12-01T09:55:00.314Z,604.800
2022-12-01T09:56:07.156Z,627.840
2022-12-01T09:57:00.371Z,653.760
2022-12-01T09:58:00.439Z,668.160
2022-12-01T09:59:00.363Z,665.280
2022-12-01T10:00:00.474Z,653.760
2022-12-01T10:01:00.409Z,639.360
2022-12-01T10:02:00.412Z,619.200
2022-12-01T10:03:00.428Z,604.800
2022-12-01T10:04:00.272Z,596.160
2022-12-01T10:05:00.364Z,596.160
2022-12-01T10:06:27.477Z,587.520
2022-12-01T10:07:00.388Z,581.760
2022-12-01T10:08:00.390Z,576.000
2022-12-01T10:09:00.373Z,570.240
2022-12-01T10:10:00.318Z,570.240
2022-12-01T10:11:00.463Z,573.120
2022-12-01T10:12:00.373Z,584.640
2022-12-01T10:13:00.393Z,599.040
2022-12-01T10:14:00.360Z,610.560
2022-12-01T10:15:00.356Z,619.200
2022-12-01T10:16:00.410Z,627.840
2022-12-01T10:17:00.293Z,619.200
2022-12-01T10:18:02.522Z,610.560
2022-12-01T10:19:00.241Z,599.040
2022-12-01T10:20:00.274Z,581.760
2022-12-01T10:21:00.296Z,564.480
2022-12-01T10:22:00.319Z,547.200
2022-12-01T10:23:00.252Z,527.040
2022-12-01T10:24:03.003Z,506.880
2022-12-01T10:25:00.286Z,489.600
2022-12-01T10:26:00.449Z,486.720
2022-12-01T10:27:00.375Z,498.240
2022-12-01T10:28:00.351Z,515.520
2022-12-01T10:29:00.309Z,518.400
2022-12-01T10:30:00.441Z,518.400
2022-12-01T10:31:00.307Z,501.120
2022-12-01T10:32:00.429Z,492.480
2022-12-01T10:33:00.286Z,489.600
2022-12-01T10:34:00.307Z,498.240
2022-12-01T10:35:00.249Z,506.880
2022-12-01T10:36:01.220Z,509.760
2022-12-01T10:37:00.278Z,509.760
2022-12-01T10:38:00.364Z,504.000
2022-12-01T10:39:00.291Z,498.240
2022-12-01T10:40:00.285Z,486.720
2022-12-01T10:41:01.166Z,475.200
2022-12-01T10:42:00.409Z,466.560
2022-12-01T10:43:00.279Z,457.920
2022-12-01T10:44:00.250Z,455.040
2022-12-01T10:45:00.318Z,446.400
2022-12-01T10:46:00.369Z,440.640
2022-12-01T10:47:00.251Z,426.240
2022-12-01T10:48:00.410Z,408.960
2022-12-01T10:49:00.254Z,388.800
2022-12-01T10:50:00.347Z,368.640
2022-12-01T10:51:00.249Z,358.560
2022-12-01T10:52:00.279Z,348.480
2022-12-01T10:53:00.349Z,344.160
2022-12-01T10:54:00.427Z,341.280
2022-12-01T10:55:00.318Z,335.520
2022-12-01T10:56:00.505Z,325.440
2022-12-01T10:57:00.319Z,313.920
2022-12-01T10:58:03.437Z,303.840
2022-12-01T10:59:00.307Z,296.640
2022-12-01T11:00:00.438Z,290.880
2022-12-01T11:01:00.833Z,288.000
2022-12-01T11:02:00.531Z,292.320
2022-12-01T11:03:00.506Z,303.840
2022-12-01T11:04:00.385Z,315.360
2022-12-01T11:05:00.322Z,328.320
2022-12-01T11:06:00.427Z,338.400
2022-12-01T11:07:00.308Z,336.960
2022-12-01T11:08:00.363Z,331.200
2022-12-01T11:09:00.254Z,324.000
2022-12-01T11:10:00.283Z,315.360
2022-12-01T11:11:00.410Z,313.920
2022-12-01T11:12:00.370Z,315.360
2022-12-01T11:13:00.267Z,322.560
2022-12-01T11:14:00.290Z,326.880
2022-12-01T11:15:00.245Z,326.880
2022-12-01T11:16:00.289Z,331.200
2022-12-01T11:17:00.482Z,335.520
2022-12-01T11:18:00.454Z,336.960
2022-12-01T11:19:00.902Z,339.840
2022-12-01T11:20:00.407Z,347.040
2022-12-01T11:21:00.316Z,351.360
2022-12-01T11:22:00.421Z,342.720
2022-12-01T11:23:00.312Z,334.080
2022-12-01T11:24:00.560Z,326.880
2022-12-01T11:25:00.282Z,322.560
2022-12-01T11:26:01.955Z,321.120
2022-12-01T11:27:00.294Z,319.680
2022-12-01T11:28:00.355Z,319.680
2022-12-01T11:29:00.252Z,321.120
2022-12-01T11:30:01.169Z,313.920
2022-12-01T11:31:00.281Z,309.600
2022-12-01T11:32:00.409Z,309.600
2022-12-01T11:33:00.307Z,311.040
2022-12-01T11:34:00.324Z,311.040
2022-12-01T11:35:00.295Z,315.360
2022-12-01T11:36:00.479Z,315.360
2022-12-01T11:37:00.251Z,312.480
2022-12-01T11:38:29.284Z,312.480
2022-12-01T11:39:00.281Z,311.040
2022-12-01T11:40:00.303Z,308.160
2022-12-01T11:41:00.284Z,298.080
2022-12-01T11:42:00.415Z,283.680
2022-12-01T11:43:00.254Z,266.400
2022-12-01T11:44:01.784Z,254.880
2022-12-01T11:45:00.271Z,250.560
2022-12-01T11:46:00.279Z,253.440
2022-12-01T11:47:21.783Z,259.200
2022-12-01T11:48:00.402Z,263.520
2022-12-01T11:49:00.253Z,263.520
2022-12-01T11:50:00.318Z,259.200
2022-12-01T11:51:00.311Z,253.440
2022-12-01T11:52:00.309Z,247.680
2022-12-01T11:53:00.300Z,239.040
2022-12-01T11:54:00.422Z,236.160
2022-12-01T11:55:03.176Z,231.840
2022-12-01T11:56:00.253Z,226.080
2022-12-01T11:57:31.822Z,220.320
2022-12-01T11:58:00.529Z,214.560
2022-12-01T11:59:00.358Z,208.800
2022-12-01T12:00:00.481Z,205.920
2022-12-01T12:01:00.310Z,204.480
2022-12-01T12:02:00.386Z,203.040
2022-12-01T12:03:00.343Z,198.720
2022-12-01T12:04:00.328Z,192.960
2022-12-01T12:05:00.342Z,182.880
2022-12-01T12:06:11.647Z,174.960
2022-12-01T12:07:00.306Z,172.080
2022-12-01T12:08:00.401Z,172.800
2022-12-01T12:09:00.420Z,170.640
2022-12-01T12:10:00.363Z,169.200
2022-12-01T12:11:00.425Z,169.920
2022-12-01T12:12:00.493Z,167.760
2022-12-01T12:13:00.457Z,165.600
2022-12-01T12:14:00.284Z,166.320
2022-12-01T12:15:00.280Z,162.000
2022-12-01T12:16:00.281Z,157.680
2022-12-01T12:17:00.281Z,163.440
2022-12-01T12:18:01.289Z,179.280
2022-12-01T12:19:00.290Z,198.720
2022-12-01T12:20:07.709Z,210.240
2022-12-01T12:21:00.284Z,213.120
2022-12-01T12:22:00.274Z,204.480
2022-12-01T12:23:00.313Z,195.840